createdAt,value
2023-02-19T00:01:49.455Z,87.77
2023-02-19T00:06:52.396Z,88.02
2023-02-19T00:11:55.360Z,87.62
2023-02-19T00:16:58.158Z,88.03
2023-02-19T00:22:00.861Z,87.73
2023-02-19T00:27:03.864Z,87.45
2023-02-19T00:32:06.923Z,87.50
2023-02-19T00:37:09.776Z,87.79
2023-02-19T00:42:12.456Z,88.03
2023-02-19T00:47:15.116Z,87.93
2023-02-19T00:52:17.873Z,88.17
2023-02-19T00:57:20.537Z,88.43
2023-02-19T01:02:23.307Z,88.68
2023-02-19T01:07:26.010Z,88.67
2023-02-19T01:12:28.765Z,88.88
2023-02-19T01:17:31.449Z,88.93
2023-02-19T01:22:34.176Z,89.73
2023-02-19T01:27:36.853Z,89.64
2023-02-19T01:32:39.795Z,90.01
2023-02-19T01:37:42.565Z,90.23
2023-02-19T01:42:45.346Z,90.45
2023-02-19T01:47:54.216Z,90.30
2023-02-19T01:52:57.191Z,90.64
2023-02-19T01:58:01.827Z,90.60
2023-02-19T02:03:05.149Z,90.56
2023-02-19T02:08:26.896Z,90.57
2023-02-19T02:13:29.917Z,90.84
2023-02-19T02:19:01.833Z,90.71
2023-02-19T02:24:35.114Z,90.67
2023-02-19T02:29:40.594Z,90.81
2023-02-19T02:34:55.079Z,90.73
2023-02-19T02:39:59.613Z,90.87
2023-02-19T02:45:35.641Z,90.61
2023-02-19T02:50:47.335Z,90.33
2023-02-19T02:55:53.498Z,90.26
2023-02-19T03:01:22.793Z,90.24
2023-02-19T03:06:29.516Z,90.21
2023-02-19T03:11:53.798Z,89.75
2023-02-19T03:17:21.382Z,89.80
2023-02-19T03:22:31.658Z,89.34
2023-02-19T03:27:37.904Z,89.52
2023-02-19T03:32:53.216Z,89.58
2023-02-19T03:38:11.692Z,89.27
2023-02-19T03:43:22.039Z,88.78
2023-02-19T03:48:34.530Z,88.70
2023-02-19T03:53:58.481Z,88.80
2023-02-19T03:59:16.976Z,88.77
2023-02-19T04:04:22.027Z,88.47
2023-02-19T04:09:34.870Z,88.42
2023-02-19T04:15:16.187Z,88.24
2023-02-19T04:20:20.985Z,88.29
2023-02-19T04:25:26.572Z,88.14
2023-02-19T04:30:29.371Z,87.92
2023-02-19T04:35:32.290Z,87.89
2023-02-19T04:40:34.986Z,87.86
2023-02-19T04:45:38.857Z,87.93
2023-02-19T04:50:41.560Z,88.07
2023-02-19T04:55:44.311Z,88.02
2023-02-19T05:00:47.012Z,87.96
2023-02-19T05:05:49.812Z,87.92
2023-02-19T05:10:52.474Z,87.83
2023-02-19T05:16:00.888Z,88.04
2023-02-19T05:21:03.743Z,87.85
2023-02-19T05:26:08.700Z,87.78
2023-02-19T05:31:12.260Z,87.92
2023-02-19T05:36:15.140Z,87.39
2023-02-19T05:41:20.942Z,87.32
2023-02-19T05:46:32.454Z,87.17
2023-02-19T05:51:35.200Z,87.45
2023-02-19T05:56:42.086Z,87.64
2023-02-19T06:01:46.158Z,87.54
2023-02-19T06:06:49.472Z,87.63
2023-02-19T06:11:52.237Z,87.72
2023-02-19T06:16:54.933Z,87.80
2023-02-19T06:21:57.692Z,87.88
2023-02-19T06:27:00.435Z,87.85
2023-02-19T06:32:03.263Z,88.05
2023-02-19T06:37:06.246Z,88.31
2023-02-19T06:42:09.050Z,88.25
2023-02-19T06:47:11.702Z,88.17
2023-02-19T06:52:14.365Z,88.06
2023-02-19T06:57:17.139Z,88.17
2023-02-19T07:02:19.841Z,87.92
2023-02-19T07:07:22.516Z,88.00
2023-02-19T07:12:25.235Z,87.67
2023-02-19T07:17:27.932Z,87.40
2023-02-19T07:22:30.631Z,87.44
2023-02-19T07:27:33.369Z,87.29
2023-02-19T07:32:36.531Z,86.99
2023-02-19T07:37:41.259Z,87.09
2023-02-19T07:42:43.971Z,87.04
2023-02-19T07:47:46.688Z,86.52
2023-02-19T07:52:49.389Z,86.55
2023-02-19T07:57:52.064Z,86.73
2023-02-19T08:03:00.973Z,86.24
2023-02-19T08:08:07.372Z,86.24
2023-02-19T08:13:25.589Z,86.38
2023-02-19T08:18:31.070Z,86.05
2023-02-19T08:23:33.945Z,85.74
2023-02-19T08:28:36.680Z,85.18
2023-02-19T08:33:39.529Z,84.72
2023-02-19T08:38:42.274Z,84.55
2023-02-19T08:43:45.101Z,84.60
2023-02-19T08:48:47.983Z,84.37
2023-02-19T08:53:50.776Z,84.82
2023-02-19T08:58:53.437Z,84.94
2023-02-19T09:03:56.186Z,85.42
2023-02-19T09:08:59.046Z,85.75
2023-02-19T09:14:02.380Z,85.70
2023-02-19T09:19:05.261Z,85.55
2023-02-19T09:24:09.630Z,85.18
2023-02-19T09:29:12.406Z,84.65
2023-02-19T09:34:15.105Z,83.55
2023-02-19T09:39:18.651Z,83.61
2023-02-19T09:44:32.361Z,82.36
2023-02-19T09:49:50.185Z,81.52
2023-02-19T09:54:57.891Z,81.21
2023-02-19T10:00:19.716Z,79.51
2023-02-19T10:05:25.911Z,79.34
2023-02-19T10:10:38.198Z,78.24
2023-02-19T10:15:49.873Z,75.00
2023-02-19T10:20:53.380Z,73.73
2023-02-19T10:25:58.658Z,73.72
2023-02-19T10:31:05.916Z,71.67
2023-02-19T10:36:24.667Z,70.27
2023-02-19T10:41:28.900Z,70.89
2023-02-19T10:46:35.756Z,71.11
2023-02-19T10:51:41.256Z,67.60
2023-02-19T10:56:44.220Z,65.26
2023-02-19T11:01:57.796Z,58.44
2023-02-19T11:07:13.600Z,56.84
2023-02-19T11:12:29.737Z,52.17
2023-02-19T11:17:33.041Z,49.28
2023-02-19T11:22:40.081Z,50.02
2023-02-19T11:27:58.066Z,49.31
2023-02-19T11:33:17.110Z,48.14
2023-02-19T11:38:21.747Z,45.81
2023-02-19T11:43:39.717Z,44.62
2023-02-19T11:49:03.806Z,43.42
2023-02-19T11:54:09.609Z,44.60
2023-02-19T11:59:42.882Z,43.10
2023-02-19T12:05:19.948Z,42.97
2023-02-19T12:10:36.955Z,44.46
2023-02-19T12:16:30.894Z,45.52
2023-02-19T12:22:04.140Z,45.35
2023-02-19T12:27:27.622Z,39.17
2023-02-19T12:32:45.792Z,37.09
2023-02-19T12:38:06.796Z,34.40
2023-02-19T12:43:15.853Z,35.97
2023-02-19T12:48:34.224Z,35.55
2023-02-19T12:53:58.646Z,35.45
2023-02-19T12:59:07.104Z,36.85
2023-02-19T13:04:31.167Z,36.24
2023-02-19T13:10:04.442Z,33.24
2023-02-19T13:15:16.431Z,34.48
2023-02-19T13:20:31.268Z,36.26
2023-02-19T13:26:15.535Z,39.28
2023-02-19T13:31:40.240Z,40.27
2023-02-19T13:36:43.594Z,40.18
2023-02-19T13:41:54.723Z,39.98
2023-02-19T13:46:58.417Z,41.11
2023-02-19T13:52:03.742Z,42.44
2023-02-19T13:57:22.609Z,42.68
2023-02-19T14:02:33.457Z,43.75
2023-02-19T14:07:36.190Z,44.53
2023-02-19T14:12:38.965Z,45.11
2023-02-19T14:17:45.978Z,46.41
2023-02-19T14:22:58.768Z,47.12
2023-02-19T14:28:10.894Z,47.87
2023-02-19T14:33:16.239Z,48.52
2023-02-19T14:38:26.108Z,49.30
2023-02-19T14:43:30.077Z,49.50
2023-02-19T14:48:38.228Z,49.66
2023-02-19T14:53:44.967Z,49.02
2023-02-19T14:59:17.369Z,48.79
2023-02-19T15:04:31.439Z,48.97
2023-02-19T15:09:39.622Z,48.91
2023-02-19T15:14:42.441Z,49.25
2023-02-19T15:19:45.456Z,49.50
2023-02-19T15:24:48.963Z,49.48
2023-02-19T15:29:53.644Z,50.01
2023-02-19T15:35:02.172Z,49.93
2023-02-19T15:40:07.717Z,50.48
2023-02-19T15:45:25.586Z,50.24
2023-02-19T15:50:34.213Z,48.79
2023-02-19T15:55:41.327Z,49.11
2023-02-19T16:00:51.904Z,49.79
2023-02-19T16:06:15.851Z,50.22
2023-02-19T16:11:24.724Z,50.85
2023-02-19T16:16:39.000Z,51.32
2023-02-19T16:21:43.734Z,51.68
2023-02-19T16:26:46.546Z,52.37
2023-02-19T16:31:52.263Z,52.89
2023-02-19T16:36:54.932Z,53.53
2023-02-19T16:42:02.152Z,53.79
2023-02-19T16:47:19.468Z,54.44
2023-02-19T16:52:22.275Z,55.28
2023-02-19T16:57:25.089Z,55.69
2023-02-19T17:02:27.891Z,56.55
2023-02-19T17:07:30.623Z,56.74
2023-02-19T17:12:33.289Z,57.34
2023-02-19T17:17:36.082Z,57.82
2023-02-19T17:22:38.980Z,58.35
2023-02-19T17:27:41.700Z,58.25
2023-02-19T17:32:44.378Z,57.97
2023-02-19T17:37:47.488Z,57.41
2023-02-19T17:42:50.256Z,56.80
2023-02-19T17:47:53.289Z,56.59
2023-02-19T17:52:56.500Z,56.03
2023-02-19T17:57:59.686Z,55.19
2023-02-19T18:03:03.442Z,54.87
2023-02-19T18:08:06.553Z,54.72
2023-02-19T18:13:10.576Z,54.94
2023-02-19T18:18:13.478Z,55.28
2023-02-19T18:23:16.482Z,55.48
2023-02-19T18:28:19.183Z,55.52
2023-02-19T18:33:21.887Z,55.99
2023-02-19T18:38:24.596Z,56.50
2023-02-19T18:43:27.289Z,57.35
2023-02-19T18:48:29.966Z,57.86
2023-02-19T18:53:32.683Z,58.36
2023-02-19T18:58:35.384Z,59.02
2023-02-19T19:03:38.062Z,59.54
2023-02-19T19:08:40.981Z,60.36
2023-02-19T19:13:45.887Z,60.58
2023-02-19T19:18:48.601Z,61.20
2023-02-19T19:23:51.547Z,61.32
2023-02-19T19:28:54.343Z,60.93
2023-02-19T19:33:57.019Z,61.96
2023-02-19T19:38:59.797Z,62.51
2023-02-19T19:44:06.841Z,62.59
2023-02-19T19:49:09.522Z,62.35
2023-02-19T19:54:13.253Z,62.35
2023-02-19T19:59:17.079Z,62.62
2023-02-19T20:04:22.611Z,63.04
2023-02-19T20:09:25.761Z,63.23
2023-02-19T20:14:28.769Z,64.28
2023-02-19T20:19:31.606Z,64.85
2023-02-19T20:24:34.392Z,64.97
2023-02-19T20:29:37.132Z,65.23
2023-02-19T20:34:40.344Z,66.34
2023-02-19T20:39:43.368Z,66.74
2023-02-19T20:44:46.255Z,67.36
2023-02-19T20:49:49.205Z,67.98
2023-02-19T20:54:56.593Z,68.31
2023-02-19T20:59:59.259Z,68.88
2023-02-19T21:05:02.103Z,69.29
2023-02-19T21:10:05.311Z,69.99
2023-02-19T21:15:08.637Z,71.01
2023-02-19T21:20:11.549Z,72.25
2023-02-19T21:25:14.254Z,74.03
2023-02-19T21:30:17.055Z,76.02
2023-02-19T21:35:19.826Z,76.92
2023-02-19T21:40:23.653Z,77.97
2023-02-19T21:45:26.524Z,78.14
2023-02-19T21:50:29.253Z,78.71
2023-02-19T21:55:32.483Z,79.37
2023-02-19T22:00:35.171Z,79.78
2023-02-19T22:05:37.995Z,79.98
2023-02-19T22:10:42.674Z,80.06
2023-02-19T22:15:45.451Z,80.18
2023-02-19T22:20:48.208Z,80.83
2023-02-19T22:25:50.877Z,81.02
2023-02-19T22:30:53.539Z,81.39
2023-02-19T22:35:56.302Z,81.32
2023-02-19T22:40:59.001Z,81.29
2023-02-19T22:46:02.041Z,82.41
2023-02-19T22:51:05.474Z,83.14
2023-02-19T22:56:08.211Z,83.91
2023-02-19T23:01:12.551Z,84.27
2023-02-19T23:06:17.428Z,84.90
2023-02-19T23:11:23.372Z,86.14
2023-02-19T23:16:26.779Z,86.38
2023-02-19T23:21:29.589Z,86.37
2023-02-19T23:26:32.416Z,85.81
2023-02-19T23:31:35.408Z,85.76
2023-02-19T23:36:42.329Z,86.03
2023-02-19T23:41:53.995Z,86.46
2023-02-19T23:46:56.716Z,86.50
2023-02-19T23:51:59.414Z,87.30
2023-02-19T23:57:02.101Z,87.53
